sensor_id;sensor_type;location;lat;lon;timestamp;pressure;altitude;pressure_sealevel;temperature;humidity
4590;BME280;2307;48.448;9.216;2024-02-16T00:01:46;95284.34;;;11.78;100.00
4590;BME280;2307;48.448;9.216;2024-02-16T00:04:12;95289.88;;;11.77;100.00
4590;BME280;2307;48.448;9.216;2024-02-16T00:06:38;95287.50;;;11.75;100.00
4590;BME280;2307;48.448;9.216;2024-02-16T00:09:05;95282.91;;;11.70;100.00
4590;BME280;2307;48.448;9.216;2024-02-16T00:11:36;95284.84;;;11.75;100.00
4590;BME280;2307;48.448;9.216;2024-02-16T00:14:02;95280.41;;;11.81;100.00
4590;BME280;2307;48.448;9.216;2024-02-16T00:16:29;95281.00;;;11.83;100.00
4590;BME280;2307;48.448;9.216;2024-02-16T00:18:55;95278.34;;;11.83;100.00
4590;BME280;2307;48.448;9.216;2024-02-16T00:21:22;95276.25;;;11.85;100.00
4590;BME280;2307;48.448;9.216;2024-02-16T00:23:48;95278.34;;;11.83;100.00
4590;BME280;2307;48.448;9.216;2024-02-16T00:26:14;95284.09;;;11.80;100.00
4590;BME280;2307;48.448;9.216;2024-02-16T00:28:42;95282.50;;;11.79;100.00
4590;BME280;2307;48.448;9.216;2024-02-16T00:31:08;95276.66;;;11.77;100.00
4590;BME280;2307;48.448;9.216;2024-02-16T00:33:35;95280.09;;;11.77;100.00
4590;BME280;2307;48.448;9.216;2024-02-16T00:36:01;95277.44;;;11.77;100.00
4590;BME280;2307;48.448;9.216;2024-02-16T00:38:28;95277.22;;;11.79;100.00
4590;BME280;2307;48.448;9.216;2024-02-16T00:40:54;95275.91;;;11.81;100.00
4590;BME280;2307;48.448;9.216;2024-02-16T00:43:20;95276.72;;;11.82;100.00
4590;BME280;2307;48.448;9.216;2024-02-16T00:45:48;95266.69;;;11.84;100.00
4590;BME280;2307;48.448;9.216;2024-02-16T00:48:14;95257.16;;;11.83;100.00
4590;BME280;2307;48.448;9.216;2024-02-16T00:50:41;95260.38;;;11.85;100.00
4590;BME280;2307;48.448;9.216;2024-02-16T00:53:08;95254.81;;;11.86;100.00
4590;BME280;2307;48.448;9.216;2024-02-16T00:55:34;95252.16;;;11.86;100.00
4590;BME280;2307;48.448;9.216;2024-02-16T00:58:02;95250.91;;;11.89;100.00
4590;BME280;2307;48.448;9.216;2024-02-16T01:00:28;95260.38;;;11.85;100.00
4590;BME280;2307;48.448;9.216;2024-02-16T01:02:56;95258.53;;;11.85;100.00
4590;BME280;2307;48.448;9.216;2024-02-16T01:05:22;95260.38;;;11.85;100.00
4590;BME280;2307;48.448;9.216;2024-02-16T01:07:49;95250.91;;;11.89;100.00
4590;BME280;2307;48.448;9.216;2024-02-16T01:10:15;95255.88;;;11.85;100.00
4590;BME280;2307;48.448;9.216;2024-02-16T01:12:41;95254.25;;;11.84;100.00
4590;BME280;2307;48.448;9.216;2024-02-16T01:15:08;95256.97;;;11.89;100.00
4590;BME280;2307;48.448;9.216;2024-02-16T01:17:35;95244.31;;;11.91;100.00
4590;BME280;2307;48.448;9.216;2024-02-16T01:20:03;95256.25;;;11.94;99.08
4590;BME280;2307;48.448;9.216;2024-02-16T01:22:31;95247.81;;;11.97;96.10
4590;BME280;2307;48.448;9.216;2024-02-16T01:24:57;95255.50;;;11.98;94.17
4590;BME280;2307;48.448;9.216;2024-02-16T01:27:24;95248.84;;;11.96;93.12
4590;BME280;2307;48.448;9.216;2024-02-16T01:29:52;95254.22;;;12.01;95.40
4590;BME280;2307;48.448;9.216;2024-02-16T01:32:18;95254.22;;;12.01;95.88
4590;BME280;2307;48.448;9.216;2024-02-16T01:34:45;95258.44;;;12.02;98.44
4590;BME280;2307;48.448;9.216;2024-02-16T01:37:16;95248.91;;;12.01;99.78
4590;BME280;2307;48.448;9.216;2024-02-16T01:39:42;95262.03;;;11.91;100.00
4590;BME280;2307;48.448;9.216;2024-02-16T01:42:08;95270.47;;;11.88;100.00
4590;BME280;2307;48.448;9.216;2024-02-16T01:44:35;95268.34;;;11.90;100.00
4590;BME280;2307;48.448;9.216;2024-02-16T01:47:02;95264.44;;;11.92;100.00
4590;BME280;2307;48.448;9.216;2024-02-16T01:49:29;95255.75;;;11.97;100.00
4590;BME280;2307;48.448;9.216;2024-02-16T01:51:55;95248.34;;;11.99;100.00
4590;BME280;2307;48.448;9.216;2024-02-16T01:54:23;95269.84;;;12.02;100.00
4590;BME280;2307;48.448;9.216;2024-02-16T01:56:50;95247.69;;;11.87;100.00
4590;BME280;2307;48.448;9.216;2024-02-16T01:59:16;95249.22;;;11.83;100.00
4590;BME280;2307;48.448;9.216;2024-02-16T02:01:43;95255.06;;;11.85;100.00
4590;BME280;2307;48.448;9.216;2024-02-16T02:04:10;95258.22;;;11.82;100.00
4590;BME280;2307;48.448;9.216;2024-02-16T02:06:36;95249.22;;;11.83;100.00
4590;BME280;2307;48.448;9.216;2024-02-16T02:09:03;95247.69;;;11.87;100.00
4590;BME280;2307;48.448;9.216;2024-02-16T02:11:30;95252.16;;;11.86;100.00
4590;BME280;2307;48.448;9.216;2024-02-16T02:13:57;95243.94;;;11.83;100.00
4590;BME280;2307;48.448;9.216;2024-02-16T02:16:23;95245.53;;;11.84;100.00
4590;BME280;2307;48.448;9.216;2024-02-16T02:18:51;95244.47;;;11.85;100.00
4590;BME280;2307;48.448;9.216;2024-02-16T02:21:18;95242.06;;;11.83;100.00
4590;BME280;2307;48.448;9.216;2024-02-16T02:23:45;95236.28;;;11.86;100.00
4590;BME280;2307;48.448;9.216;2024-02-16T02:26:13;95231.31;;;11.90;99.15
4590;BME280;2307;48.448;9.216;2024-02-16T02:28:41;95237.16;;;11.92;98.71
4590;BME280;2307;48.448;9.216;2024-02-16T02:31:08;95229.53;;;11.95;98.81
4590;BME280;2307;48.448;9.216;2024-02-16T02:33:34;95230.63;;;11.99;98.19
4590;BME280;2307;48.448;9.216;2024-02-16T02:36:01;95225.63;;;12.03;97.86
4590;BME280;2307;48.448;9.216;2024-02-16T02:38:28;95221.38;;;12.02;97.48
4590;BME280;2307;48.448;9.216;2024-02-16T02:40:56;95218.72;;;12.02;94.58
4590;BME280;2307;48.448;9.216;2024-02-16T02:43:23;95221.97;;;12.04;93.74
4590;BME280;2307;48.448;9.216;2024-02-16T02:45:50;95218.28;;;12.05;93.19
4590;BME280;2307;48.448;9.216;2024-02-16T02:48:16;95211.38;;;12.04;94.12
4590;BME280;2307;48.448;9.216;2024-02-16T02:50:43;95212.41;;;12.03;95.14
4590;BME280;2307;48.448;9.216;2024-02-16T02:53:09;95220.34;;;12.03;94.63
4590;BME280;2307;48.448;9.216;2024-02-16T02:55:35;95217.69;;;12.03;93.57
4590;BME280;2307;48.448;9.216;2024-02-16T02:58:03;95215.06;;;12.03;94.74
4590;BME280;2307;48.448;9.216;2024-02-16T03:00:30;95221.69;;;12.05;94.48
4590;BME280;2307;48.448;9.216;2024-02-16T03:02:56;95221.47;;;12.07;94.22
4590;BME280;2307;48.448;9.216;2024-02-16T03:05:22;95220.41;;;12.08;94.63
4590;BME280;2307;48.448;9.216;2024-02-16T03:07:49;95223.59;;;12.10;93.98
4590;BME280;2307;48.448;9.216;2024-02-16T03:10:16;95224.72;;;12.14;94.16
4590;BME280;2307;48.448;9.216;2024-02-16T03:12:47;95219.97;;;12.16;96.73
4590;BME280;2307;48.448;9.216;2024-02-16T03:15:15;95218.34;;;12.15;99.38
4590;BME280;2307;48.448;9.216;2024-02-16T03:17:42;95216.78;;;12.14;100.00
4590;BME280;2307;48.448;9.216;2024-02-16T03:20:09;95219.94;;;12.11;100.00
4590;BME280;2307;48.448;9.216;2024-02-16T03:22:36;95218.53;;;12.08;99.86
4590;BME280;2307;48.448;9.216;2024-02-16T03:25:02;95211.38;;;12.04;96.75
4590;BME280;2307;48.448;9.216;2024-02-16T03:27:30;95209.75;;;12.03;97.30
4590;BME280;2307;48.448;9.216;2024-02-16T03:29:56;95207.88;;;11.98;97.79
4590;BME280;2307;48.448;9.216;2024-02-16T03:32:24;95204.91;;;11.95;97.25
4590;BME280;2307;48.448;9.216;2024-02-16T03:34:50;95211.75;;;11.91;97.77
4590;BME280;2307;48.448;9.216;2024-02-16T03:37:17;95206.94;;;11.88;93.91
4590;BME280;2307;48.448;9.216;2024-02-16T03:39:43;95213.34;;;11.92;93.80
4590;BME280;2307;48.448;9.216;2024-02-16T03:42:10;95211.00;;;11.95;91.24
4590;BME280;2307;48.448;9.216;2024-02-16T03:44:36;95215.25;;;11.96;87.17
4590;BME280;2307;48.448;9.216;2024-02-16T03:47:02;95216.03;;;11.97;82.33
4590;BME280;2307;48.448;9.216;2024-02-16T03:49:30;95212.34;;;11.98;81.94
4590;BME280;2307;48.448;9.216;2024-02-16T03:51:57;95217.66;;;11.98;84.38
4590;BME280;2307;48.448;9.216;2024-02-16T03:54:23;95218.19;;;12.00;83.81
4590;BME280;2307;48.448;9.216;2024-02-16T03:56:52;95221.88;;;11.99;82.09
4590;BME280;2307;48.448;9.216;2024-02-16T03:59:18;95225.34;;;11.99;80.20
4590;BME280;2307;48.448;9.216;2024-02-16T04:01:44;95220.34;;;12.03;79.32
4590;BME280;2307;48.448;9.216;2024-02-16T04:04:11;95221.47;;;12.07;78.34
4590;BME280;2307;48.448;9.216;2024-02-16T04:06:39;95225.22;;;12.11;76.80
4590;BME280;2307;48.448;9.216;2024-02-16T04:09:05;95225.53;;;12.14;76.03
4590;BME280;2307;48.448;9.216;2024-02-16T04:11:32;95229.03;;;12.20;75.68
4590;BME280;2307;48.448;9.216;2024-02-16T04:13:58;95226.19;;;12.27;74.73
4590;BME280;2307;48.448;9.216;2024-02-16T04:16:25;95226.47;;;12.30;73.78
4590;BME280;2307;48.448;9.216;2024-02-16T04:18:51;95231.28;;;12.33;73.02
4590;BME280;2307;48.448;9.216;2024-02-16T04:21:18;95231.59;;;12.37;73.66
4590;BME280;2307;48.448;9.216;2024-02-16T04:23:47;95229.47;;;12.39;74.53
4590;BME280;2307;48.448;9.216;2024-02-16T04:26:13;95228.97;;;12.42;74.06
4590;BME280;2307;48.448;9.216;2024-02-16T04:28:40;95239.31;;;12.43;72.88
4590;BME280;2307;48.448;9.216;2024-02-16T04:31:06;95236.66;;;12.43;73.25
4590;BME280;2307;48.448;9.216;2024-02-16T04:33:32;95239.88;;;12.45;73.21
4590;BME280;2307;48.448;9.216;2024-02-16T04:35:59;95239.81;;;12.40;74.99
4590;BME280;2307;48.448;9.216;2024-02-16T04:38:25;95237.91;;;12.36;75.66
4590;BME280;2307;48.448;9.216;2024-02-16T04:40:53;95245.06;;;12.35;78.27
4590;BME280;2307;48.448;9.216;2024-02-16T04:43:19;95245.88;;;12.36;79.21
4590;BME280;2307;48.448;9.216;2024-02-16T04:45:46;95252.78;;;12.37;81.23
4590;BME280;2307;48.448;9.216;2024-02-16T04:48:12;95248.81;;;12.39;79.15
4590;BME280;2307;48.448;9.216;2024-02-16T04:50:39;95249.88;;;12.38;78.01
4590;BME280;2307;48.448;9.216;2024-02-16T04:53:05;95252.28;;;12.40;78.47
4590;BME280;2307;48.448;9.216;2024-02-16T04:55:31;95245.69;;;12.42;77.83
4590;BME280;2307;48.448;9.216;2024-02-16T04:58:00;95245.19;;;12.45;78.90
4590;BME280;2307;48.448;9.216;2024-02-16T05:00:29;95247.56;;;12.47;80.23
4590;BME280;2307;48.448;9.216;2024-02-16T05:02:56;95247.84;;;12.50;82.59
4590;BME280;2307;48.448;9.216;2024-02-16T05:05:22;95243.38;;;12.51;82.80
4590;BME280;2307;48.448;9.216;2024-02-16T05:07:49;95250.81;;;12.54;81.54
4590;BME280;2307;48.448;9.216;2024-02-16T05:10:16;95243.66;;;12.54;82.59
4590;BME280;2307;48.448;9.216;2024-02-16T05:12:42;95247.66;;;12.57;85.04
4590;BME280;2307;48.448;9.216;2024-02-16T05:15:10;95246.84;;;12.56;85.56
4590;BME280;2307;48.448;9.216;2024-02-16T05:17:38;95252.97;;;12.57;84.73
4590;BME280;2307;48.448;9.216;2024-02-16T05:20:07;95252.16;;;12.56;83.91
4590;BME280;2307;48.448;9.216;2024-02-16T05:22:34;95252.41;;;12.55;86.06
4590;BME280;2307;48.448;9.216;2024-02-16T05:25:01;95255.88;;;12.55;86.27
4590;BME280;2307;48.448;9.216;2024-02-16T05:27:27;95262.75;;;12.56;85.10
4590;BME280;2307;48.448;9.216;2024-02-16T05:29:54;95262.75;;;12.56;84.93
4590;BME280;2307;48.448;9.216;2024-02-16T05:32:22;95254.81;;;12.56;85.11
4590;BME280;2307;48.448;9.216;2024-02-16T05:34:48;95262.75;;;12.56;87.61
4590;BME280;2307;48.448;9.216;2024-02-16T05:37:14;95262.22;;;12.54;91.35
4590;BME280;2307;48.448;9.216;2024-02-16T05:39:41;95261.38;;;12.49;93.60
4590;BME280;2307;48.448;9.216;2024-02-16T05:42:19;95267.16;;;12.46;93.10
4590;BME280;2307;48.448;9.216;2024-02-16T05:44:46;95273.75;;;12.43;92.36
4590;BME280;2307;48.448;9.216;2024-02-16T05:47:12;95274.19;;;12.35;90.49
4590;BME280;2307;48.448;9.216;2024-02-16T05:49:40;95271.25;;;12.32;92.08
4590;BME280;2307;48.448;9.216;2024-02-16T05:52:06;95275.72;;;12.31;93.90
4590;BME280;2307;48.448;9.216;2024-02-16T05:54:45;95272.00;;;12.27;95.65
4590;BME280;2307;48.448;9.216;2024-02-16T05:57:12;95278.34;;;12.26;97.06
4590;BME280;2307;48.448;9.216;2024-02-16T05:59:39;95282.03;;;12.25;98.79
4590;BME280;2307;48.448;9.216;2024-02-16T06:02:07;95281.72;;;12.21;97.61
4590;BME280;2307;48.448;9.216;2024-02-16T06:04:33;95285.13;;;12.17;98.36
4590;BME280;2307;48.448;9.216;2024-02-16T06:07:01;95284.31;;;12.16;98.69
4590;BME280;2307;48.448;9.216;2024-02-16T06:09:28;95288.25;;;12.14;97.32
4590;BME280;2307;48.448;9.216;2024-02-16T06:12:00;95275.25;;;12.12;97.31
4590;BME280;2307;48.448;9.216;2024-02-16T06:14:28;95294.53;;;12.08;97.85
4590;BME280;2307;48.448;9.216;2024-02-16T06:16:54;95287.88;;;12.05;98.65
4590;BME280;2307;48.448;9.216;2024-02-16T06:19:21;95289.97;;;12.03;98.55
4590;BME280;2307;48.448;9.216;2024-02-16T06:21:47;95302.66;;;12.01;100.00
4590;BME280;2307;48.448;9.216;2024-02-16T06:24:15;95302.03;;;11.94;100.00
4590;BME280;2307;48.448;9.216;2024-02-16T06:26:41;95304.19;;;11.97;100.00
4590;BME280;2307;48.448;9.216;2024-02-16T06:29:08;95307.06;;;11.96;100.00
4590;BME280;2307;48.448;9.216;2024-02-16T06:31:35;95312.06;;;11.92;100.00
4590;BME280;2307;48.448;9.216;2024-02-16T06:34:01;95317.38;;;11.92;100.00
4590;BME280;2307;48.448;9.216;2024-02-16T06:36:28;95326.56;;;11.90;100.00
4590;BME280;2307;48.448;9.216;2024-02-16T06:38:54;95323.38;;;11.88;100.00
4590;BME280;2307;48.448;9.216;2024-02-16T06:41:22;95323.38;;;11.88;100.00
4590;BME280;2307;48.448;9.216;2024-02-16T06:43:48;95326.03;;;11.88;100.00
4590;BME280;2307;48.448;9.216;2024-02-16T06:46:15;95338.13;;;11.84;100.00
4590;BME280;2307;48.448;9.216;2024-02-16T06:48:41;95340.22;;;11.82;100.00
4590;BME280;2307;48.448;9.216;2024-02-16T06:51:07;95339.44;;;11.81;100.00
4590;BME280;2307;48.448;9.216;2024-02-16T06:53:34;95336.56;;;11.83;100.00
4590;BME280;2307;48.448;9.216;2024-02-16T06:56:00;95337.28;;;11.78;100.00
4590;BME280;2307;48.448;9.216;2024-02-16T06:58:29;95345.22;;;11.78;100.00
4590;BME280;2307;48.448;9.216;2024-02-16T07:00:55;95344.41;;;11.78;100.00
4590;BME280;2307;48.448;9.216;2024-02-16T07:03:23;95339.91;;;11.78;100.00
4590;BME280;2307;48.448;9.216;2024-02-16T07:05:49;95342.03;;;11.76;100.00
4590;BME280;2307;48.448;9.216;2024-02-16T07:08:16;95343.78;;;11.70;100.00
4590;BME280;2307;48.448;9.216;2024-02-16T07:10:42;95345.38;;;11.71;100.00
4590;BME280;2307;48.448;9.216;2024-02-16T07:13:08;95347.31;;;11.76;100.00
4590;BME280;2307;48.448;9.216;2024-02-16T07:15:36;95351.78;;;11.76;100.00
4590;BME280;2307;48.448;9.216;2024-02-16T07:18:03;95361.09;;;11.78;98.28
4590;BME280;2307;48.448;9.216;2024-02-16T07:20:29;95354.50;;;11.81;99.75
4590;BME280;2307;48.448;9.216;2024-02-16T07:22:56;95357.16;;;11.81;100.00
4590;BME280;2307;48.448;9.216;2024-02-16T07:25:22;95354.50;;;11.81;100.00
4590;BME280;2307;48.448;9.216;2024-02-16T07:27:48;95356.13;;;11.82;100.00
4590;BME280;2307;48.448;9.216;2024-02-16T07:30:15;95358.19;;;11.80;100.00
4590;BME280;2307;48.448;9.216;2024-02-16T07:32:43;95353.38;;;11.77;100.00
4590;BME280;2307;48.448;9.216;2024-02-16T07:35:10;95358.66;;;11.77;98.91
4590;BME280;2307;48.448;9.216;2024-02-16T07:37:38;95358.66;;;11.77;98.07
4590;BME280;2307;48.448;9.216;2024-02-16T07:40:05;95358.19;;;11.80;100.00
4590;BME280;2307;48.448;9.216;2024-02-16T07:42:34;95359.78;;;11.81;100.00
4590;BME280;2307;48.448;9.216;2024-02-16T07:45:00;95360.59;;;11.81;98.57
4590;BME280;2307;48.448;9.216;2024-02-16T07:47:29;95361.94;;;11.84;94.45
4590;BME280;2307;48.448;9.216;2024-02-16T07:49:57;95364.69;;;11.89;93.18
4590;BME280;2307;48.448;9.216;2024-02-16T07:52:24;95361.06;;;11.95;93.74
4590;BME280;2307;48.448;9.216;2024-02-16T07:54:50;95363.13;;;11.93;94.75
4590;BME280;2307;48.448;9.216;2024-02-16T07:57:16;95367.41;;;11.94;97.72
4590;BME280;2307;48.448;9.216;2024-02-16T07:59:43;95364.19;;;11.92;98.46
4590;BME280;2307;48.448;9.216;2024-02-16T08:02:09;95367.88;;;11.91;99.05
4590;BME280;2307;48.448;9.216;2024-02-16T08:04:40;95373.88;;;11.86;98.77
4590;BME280;2307;48.448;9.216;2024-02-16T08:07:08;95367.03;;;11.85;100.00
4590;BME280;2307;48.448;9.216;2024-02-16T08:09:34;95376.31;;;11.88;100.00
4590;BME280;2307;48.448;9.216;2024-02-16T08:12:01;95367.81;;;11.86;100.00
4590;BME280;2307;48.448;9.216;2024-02-16T08:14:30;95372.63;;;11.89;100.00
4590;BME280;2307;48.448;9.216;2024-02-16T08:16:57;95373.97;;;11.91;100.00
4590;BME280;2307;48.448;9.216;2024-02-16T08:19:23;95365.06;;;11.97;99.40
4590;BME280;2307;48.448;9.216;2024-02-16T08:21:57;95367.53;;;12.04;97.65
4590;BME280;2307;48.448;9.216;2024-02-16T08:24:25;95371.22;;;12.03;99.52
4590;BME280;2307;48.448;9.216;2024-02-16T08:26:52;95382.09;;;11.85;100.00
4590;BME280;2307;48.448;9.216;2024-02-16T08:29:18;95384.09;;;11.78;100.00
4590;BME280;2307;48.448;9.216;2024-02-16T08:31:45;95380.97;;;11.81;100.00
4590;BME280;2307;48.448;9.216;2024-02-16T08:34:13;95386.84;;;11.83;100.00
4590;BME280;2307;48.448;9.216;2024-02-16T08:36:43;95383.94;;;11.84;98.77
4590;BME280;2307;48.448;9.216;2024-02-16T08:39:09;95377.97;;;11.94;93.59
4590;BME280;2307;48.448;9.216;2024-02-16T08:41:38;95382.84;;;12.02;90.96
4590;BME280;2307;48.448;9.216;2024-02-16T08:44:05;95378.69;;;12.06;89.75
4590;BME280;2307;48.448;9.216;2024-02-16T08:46:32;95383.00;;;12.12;91.23
4590;BME280;2307;48.448;9.216;2024-02-16T08:48:59;95380.13;;;12.13;92.39
4590;BME280;2307;48.448;9.216;2024-02-16T08:51:25;95380.66;;;12.15;91.48
4590;BME280;2307;48.448;9.216;2024-02-16T08:53:52;95382.28;;;12.16;91.64
4590;BME280;2307;48.448;9.216;2024-02-16T08:56:18;95391.81;;;12.17;87.27
4590;BME280;2307;48.448;9.216;2024-02-16T08:58:46;95405.28;;;12.16;97.81
4590;BME280;2307;48.448;9.216;2024-02-16T09:01:12;95401.47;;;12.07;100.00
4590;BME280;2307;48.448;9.216;2024-02-16T09:03:40;95407.47;;;12.02;100.00
4590;BME280;2307;48.448;9.216;2024-02-16T09:06:07;95405.63;;;12.03;100.00
4590;BME280;2307;48.448;9.216;2024-02-16T09:08:33;95407.25;;;12.04;100.00
4590;BME280;2307;48.448;9.216;2024-02-16T09:11:00;95413.09;;;12.06;100.00
4590;BME280;2307;48.448;9.216;2024-02-16T09:13:30;95415.25;;;12.09;100.00
4590;BME280;2307;48.448;9.216;2024-02-16T09:15:57;95413.72;;;12.13;100.00
4590;BME280;2307;48.448;9.216;2024-02-16T09:18:24;95419.56;;;12.15;100.00
4590;BME280;2307;48.448;9.216;2024-02-16T09:20:50;95417.00;;;12.20;96.20
4590;BME280;2307;48.448;9.216;2024-02-16T09:23:17;95425.59;;;12.27;92.98
4590;BME280;2307;48.448;9.216;2024-02-16T09:25:43;95423.53;;;12.34;89.14
4590;BME280;2307;48.448;9.216;2024-02-16T09:28:11;95421.53;;;12.41;86.76
4590;BME280;2307;48.448;9.216;2024-02-16T09:30:37;95428.09;;;12.55;87.11
4590;BME280;2307;48.448;9.216;2024-02-16T09:33:05;95430.84;;;12.65;88.61
4590;BME280;2307;48.448;9.216;2024-02-16T09:35:32;95440.47;;;12.71;88.46
4590;BME280;2307;48.448;9.216;2024-02-16T09:37:58;95439.00;;;12.81;87.93
4590;BME280;2307;48.448;9.216;2024-02-16T09:40:25;95434.22;;;12.83;88.44
4590;BME280;2307;48.448;9.216;2024-02-16T09:42:51;95444.34;;;12.86;89.08
4590;BME280;2307;48.448;9.216;2024-02-16T09:45:18;95446.44;;;12.84;90.72
4590;BME280;2307;48.448;9.216;2024-02-16T09:47:44;95448.59;;;12.87;90.70
4590;BME280;2307;48.448;9.216;2024-02-16T09:50:13;95450.75;;;12.90;87.99
4590;BME280;2307;48.448;9.216;2024-02-16T09:52:40;95451.06;;;12.93;87.48
4590;BME280;2307;48.448;9.216;2024-02-16T09:55:07;95447.41;;;12.99;86.99
4590;BME280;2307;48.448;9.216;2024-02-16T09:57:36;95454.22;;;13.12;87.33
4590;BME280;2307;48.448;9.216;2024-02-16T10:00:03;95457.00;;;13.22;88.46
4590;BME280;2307;48.448;9.216;2024-02-16T10:02:38;95457.06;;;13.32;90.50
4590;BME280;2307;48.448;9.216;2024-02-16T10:05:09;95459.31;;;13.45;90.09
4590;BME280;2307;48.448;9.216;2024-02-16T10:07:37;95469.50;;;13.53;79.77
4590;BME280;2307;48.448;9.216;2024-02-16T10:10:03;95468.31;;;13.71;78.24
4590;BME280;2307;48.448;9.216;2024-02-16T10:12:30;95474.06;;;13.90;76.94
4590;BME280;2307;48.448;9.216;2024-02-16T10:14:56;95471.03;;;14.08;75.57
4590;BME280;2307;48.448;9.216;2024-02-16T10:17:24;95475.13;;;14.25;70.66
4590;BME280;2307;48.448;9.216;2024-02-16T10:20:00;95482.69;;;14.39;71.17
4590;BME280;2307;48.448;9.216;2024-02-16T10:22:29;95486.25;;;14.54;68.83
4590;BME280;2307;48.448;9.216;2024-02-16T10:25:06;95487.88;;;14.60;67.91
4590;BME280;2307;48.448;9.216;2024-02-16T10:27:36;95483.44;;;14.76;66.72
4590;BME280;2307;48.448;9.216;2024-02-16T10:30:03;95490.94;;;14.84;64.22
4590;BME280;2307;48.448;9.216;2024-02-16T10:32:35;95488.81;;;14.91;66.74
4590;BME280;2307;48.448;9.216;2024-02-16T10:35:02;95479.81;;;14.97;68.03
4590;BME280;2307;48.448;9.216;2024-02-16T10:37:30;95483.38;;;15.18;67.74
4590;BME280;2307;48.448;9.216;2024-02-16T10:39:58;95487.97;;;15.37;66.12
4590;BME280;2307;48.448;9.216;2024-02-16T10:42:25;95485.34;;;15.58;63.92
4590;BME280;2307;48.448;9.216;2024-02-16T10:44:53;95485.91;;;15.70;65.10
4590;BME280;2307;48.448;9.216;2024-02-16T10:47:20;95475.81;;;15.82;65.19
4590;BME280;2307;48.448;9.216;2024-02-16T10:49:46;95480.91;;;16.04;64.65
4590;BME280;2307;48.448;9.216;2024-02-16T10:52:13;95478.22;;;16.04;64.45
4590;BME280;2307;48.448;9.216;2024-02-16T10:54:40;95477.44;;;16.13;64.66
4590;BME280;2307;48.448;9.216;2024-02-16T10:57:09;95478.22;;;16.09;64.46
4590;BME280;2307;48.448;9.216;2024-02-16T10:59:40;95478.50;;;15.97;65.06
4590;BME280;2307;48.448;9.216;2024-02-16T11:02:08;95484.63;;;15.87;66.96
4590;BME280;2307;48.448;9.216;2024-02-16T11:04:37;95486.47;;;15.72;67.35
4590;BME280;2307;48.448;9.216;2024-02-16T11:07:10;95481.38;;;15.50;68.62
4590;BME280;2307;48.448;9.216;2024-02-16T11:09:39;95486.06;;;15.33;70.31
4590;BME280;2307;48.448;9.216;2024-02-16T11:12:06;95488.19;;;15.31;71.98
4590;BME280;2307;48.448;9.216;2024-02-16T11:14:35;95483.41;;;15.33;73.16
4590;BME280;2307;48.448;9.216;2024-02-16T11:17:02;95484.50;;;15.37;73.37
4590;BME280;2307;48.448;9.216;2024-02-16T11:19:33;95487.44;;;15.40;72.43
4590;BME280;2307;48.448;9.216;2024-02-16T11:22:02;95485.81;;;15.34;73.50
4590;BME280;2307;48.448;9.216;2024-02-16T11:24:32;95488.44;;;15.29;72.23
4590;BME280;2307;48.448;9.216;2024-02-16T11:27:01;95495.13;;;15.42;73.23
4590;BME280;2307;48.448;9.216;2024-02-16T11:29:28;95490.91;;;15.41;72.94
4590;BME280;2307;48.448;9.216;2024-02-16T11:31:58;95490.91;;;15.41;74.33
4590;BME280;2307;48.448;9.216;2024-02-16T11:34:26;95497.81;;;15.42;75.79
4590;BME280;2307;48.448;9.216;2024-02-16T11:36:53;95496.81;;;15.53;75.03
4590;BME280;2307;48.448;9.216;2024-02-16T11:39:19;95495.19;;;15.57;74.63
4590;BME280;2307;48.448;9.216;2024-02-16T11:41:46;95488.28;;;15.61;75.25
4590;BME280;2307;48.448;9.216;2024-02-16T11:44:12;95494.16;;;15.58;74.99
4590;BME280;2307;48.448;9.216;2024-02-16T11:46:41;95499.47;;;15.58;75.67
4590;BME280;2307;48.448;9.216;2024-02-16T11:49:09;95489.88;;;15.52;76.44
4590;BME280;2307;48.448;9.216;2024-02-16T11:51:36;95482.69;;;15.58;76.63
4590;BME280;2307;48.448;9.216;2024-02-16T11:54:04;95490.41;;;15.49;76.70
4590;BME280;2307;48.448;9.216;2024-02-16T11:56:31;95487.50;;;15.51;79.20
4590;BME280;2307;48.448;9.216;2024-02-16T11:58:57;95485.09;;;15.59;78.68
4590;BME280;2307;48.448;9.216;2024-02-16T12:01:24;95488.03;;;15.73;79.67
4590;BME280;2307;48.448;9.216;2024-02-16T12:03:50;95479.81;;;15.84;78.78
4590;BME280;2307;48.448;9.216;2024-02-16T12:06:21;95484.06;;;15.95;79.76
4590;BME280;2307;48.448;9.216;2024-02-16T12:08:49;95482.47;;;16.15;78.62
4590;BME280;2307;48.448;9.216;2024-02-16T12:11:15;95485.94;;;16.15;78.92
4590;BME280;2307;48.448;9.216;2024-02-16T12:13:42;95491.28;;;16.25;77.47
4590;BME280;2307;48.448;9.216;2024-02-16T12:16:08;95501.38;;;16.33;77.22
4590;BME280;2307;48.448;9.216;2024-02-16T12:18:35;95493.13;;;16.25;78.09
4590;BME280;2307;48.448;9.216;2024-02-16T12:21:01;95487.03;;;16.29;78.32
4590;BME280;2307;48.448;9.216;2024-02-16T12:23:29;95480.88;;;16.29;79.34
4590;BME280;2307;48.448;9.216;2024-02-16T12:25:57;95493.16;;;16.30;79.65
4590;BME280;2307;48.448;9.216;2024-02-16T12:28:24;95489.94;;;16.28;78.57
4590;BME280;2307;48.448;9.216;2024-02-16T12:30:51;95489.16;;;16.32;78.35
4590;BME280;2307;48.448;9.216;2024-02-16T12:33:17;95489.94;;;16.33;78.99
4590;BME280;2307;48.448;9.216;2024-02-16T12:35:43;95495.81;;;16.35;79.03
4590;BME280;2307;48.448;9.216;2024-02-16T12:38:10;95496.88;;;16.39;79.90
4590;BME280;2307;48.448;9.216;2024-02-16T12:40:38;95504.84;;;16.34;80.08
4590;BME280;2307;48.448;9.216;2024-02-16T12:43:04;95501.66;;;16.47;81.66
4590;BME280;2307;48.448;9.216;2024-02-16T12:45:33;95500.56;;;16.43;81.24
4590;BME280;2307;48.448;9.216;2024-02-16T12:48:00;95508.59;;;16.28;82.13
4590;BME280;2307;48.448;9.216;2024-02-16T12:50:26;95501.66;;;16.32;83.17
4590;BME280;2307;48.448;9.216;2024-02-16T12:52:53;95507.81;;;16.22;84.25
4590;BME280;2307;48.448;9.216;2024-02-16T12:55:19;95501.16;;;16.30;83.71
4590;BME280;2307;48.448;9.216;2024-02-16T12:57:47;95503.25;;;16.28;84.55
4590;BME280;2307;48.448;9.216;2024-02-16T13:00:14;95505.91;;;16.43;83.24
4590;BME280;2307;48.448;9.216;2024-02-16T13:02:41;95502.72;;;16.46;83.95
4590;BME280;2307;48.448;9.216;2024-02-16T13:05:07;95505.94;;;16.28;84.09
4590;BME280;2307;48.448;9.216;2024-02-16T13:07:35;95505.13;;;16.27;83.80
4590;BME280;2307;48.448;9.216;2024-02-16T13:10:03;95498.19;;;16.21;85.47
4590;BME280;2307;48.448;9.216;2024-02-16T13:12:29;95507.00;;;16.32;85.96
4590;BME280;2307;48.448;9.216;2024-02-16T13:14:57;95506.47;;;16.35;85.71
4590;BME280;2307;48.448;9.216;2024-02-16T13:17:24;95509.66;;;16.32;86.23